Time;durP1;ratioP1;P1;durP2;ratioP2;P2;SDS_P1;SDS_P2;PMS_P1;PMS_P2;Temp;Humidity;BMP_temperature;BMP_pressure;BME280_temperature;BME280_humidity;BME280_pressure;Samples;Min_cycle;Max_cycle;Signal;HPM_P1;HPM_P2
2022/09/25 00:35:52;;;;;;;30.77;17.00;;;;;;;;;;6095056;23;20558;-92
2022/09/25 00:38:57;;;;;;;36.17;17.60;;;;;;;;;;6103414;23;20299;-93
2022/09/25 00:42:02;;;;;;;30.85;17.13;;;;;;;;;;6105803;23;20646;-93
2022/09/25 00:45:08;;;;;;;33.85;17.98;;;;;;;;;;6103498;23;20698;-91
2022/09/25 00:48:15;;;;;;;38.65;18.48;;;;;;;;;;6102793;23;20178;-91
2022/09/25 00:51:28;;;;;;;35.50;17.40;;;;;;;;;;6103483;23;20169;-92
2022/09/25 00:54:35;;;;;;;40.13;17.42;;;;;;;;;;6102687;23;20174;-92
2022/09/25 00:57:41;;;;;;;30.40;16.52;;;;;;;;;;6106111;23;20589;-90
2022/09/25 01:00:46;;;;;;;30.23;16.38;;;;;;;;;;6104483;23;20213;-91
2022/09/25 01:03:52;;;;;;;29.92;16.13;;;;;;;;;;6104057;23;20544;-91
2022/09/25 01:07:02;;;;;;;27.70;16.02;;;;;;;;;;6109338;23;20170;-92
2022/09/25 01:10:09;;;;;;;27.27;15.88;;;;;;;;;;6109146;23;20169;-92
2022/09/25 01:13:18;;;;;;;29.80;15.77;;;;;;;;;;6107708;23;20308;-92
2022/09/25 01:16:29;;;;;;;28.67;15.40;;;;;;;;;;6108598;23;20178;-91
2022/09/25 01:19:47;;;;;;;28.48;15.48;;;;;;;;;;6107287;23;20269;-92
2022/09/25 01:23:08;;;;;;;29.45;15.57;;;;;;;;;;6109413;23;20194;-93
2022/09/25 01:26:34;;;;;;;43.83;15.93;;;;;;;;;;6109344;23;20166;-91
2022/09/25 01:33:19;;;;;;;32.08;15.30;;;;;;;;;;6111297;23;20193;-91
2022/09/25 01:36:28;;;;;;;32.22;16.13;;;;;;;;;;6110168;23;20234;-91
2022/09/25 01:39:37;;;;;;;32.10;15.98;;;;;;;;;;6108703;23;20547;-88
2022/09/25 01:42:48;;;;;;;39.22;16.67;;;;;;;;;;6110085;23;20250;-91
2022/09/25 01:45:58;;;;;;;33.85;16.60;;;;;;;;;;6109055;23;20157;-92
2022/09/25 01:49:07;;;;;;;32.38;15.15;;;;;;;;;;6108762;23;20189;-91
2022/09/25 01:52:14;;;;;;;31.67;15.98;;;;;;;;;;6108606;23;20178;-92
2022/09/25 01:55:22;;;;;;;35.10;15.90;;;;;;;;;;6103910;23;20502;-92
2022/09/25 01:58:29;;;;;;;27.85;14.18;;;;;;;;;;6103360;23;20173;-92
2022/09/25 02:01:37;;;;;;;25.15;14.13;;;;;;;;;;6103545;23;20161;-92
2022/09/25 02:04:46;;;;;;;28.48;15.27;;;;;;;;;;6103413;23;20588;-91
2022/09/25 02:07:54;;;;;;;43.38;18.27;;;;;;;;;;6107144;23;20161;-92
2022/09/25 02:11:01;;;;;;;46.08;18.50;;;;;;;;;;6101907;23;20177;-91
2022/09/25 02:14:09;;;;;;;55.03;19.38;;;;;;;;;;6101852;23;20177;-92
2022/09/25 02:20:30;;;;;;;43.78;19.40;;;;;;;;;;6102373;23;20170;-93
2022/09/25 02:20:46;;;;;;;36.17;18.92;;;;;;;;;;6103801;23;20205;-93
2022/09/25 02:24:17;;;;;;;39.60;17.70;;;;;;;;;;6105698;23;20287;-92
2022/09/25 02:27:23;;;;;;;38.28;16.95;;;;;;;;;;6106726;23;20240;-92
2022/09/25 02:30:27;;;;;;;43.65;18.10;;;;;;;;;;6108977;23;20217;-91
2022/09/25 02:33:34;;;;;;;37.97;17.23;;;;;;;;;;6108224;23;20488;-92
2022/09/25 02:36:43;;;;;;;49.70;18.10;;;;;;;;;;6109072;23;20299;-92
2022/09/25 02:39:50;;;;;;;35.90;17.38;;;;;;;;;;6107830;23;20214;-92
2022/09/25 02:43:00;;;;;;;41.10;17.17;;;;;;;;;;6107961;23;20212;-92
2022/09/25 02:46:08;;;;;;;35.03;17.42;;;;;;;;;;6109771;23;20223;-93
2022/09/25 02:49:17;;;;;;;34.78;17.02;;;;;;;;;;6105162;23;20177;-92
2022/09/25 02:52:28;;;;;;;37.55;17.70;;;;;;;;;;6106761;23;20174;-92
2022/09/25 02:55:35;;;;;;;35.45;17.15;;;;;;;;;;6104860;23;20157;-92
2022/09/25 02:58:42;;;;;;;36.47;16.35;;;;;;;;;;6103547;23;20302;-93
2022/09/25 03:01:48;;;;;;;33.50;16.58;;;;;;;;;;6104316;23;20228;-92
2022/09/25 03:04:53;;;;;;;34.67;16.98;;;;;;;;;;6104854;23;20245;-93
2022/09/25 03:11:25;;;;;;;41.05;18.45;;;;;;;;;;6103959;23;20232;-92
2022/09/25 03:14:30;;;;;;;33.42;17.73;;;;;;;;;;6105993;23;20174;-92
2022/09/25 03:17:36;;;;;;;33.78;15.85;;;;;;;;;;6105434;23;20311;-92
2022/09/25 03:20:40;;;;;;;33.28;17.08;;;;;;;;;;6106263;23;20178;-92
2022/09/25 03:24:11;;;;;;;35.63;17.30;;;;;;;;;;6105233;23;20193;-90
2022/09/25 03:27:18;;;;;;;31.70;17.13;;;;;;;;;;6106448;23;20170;-92
2022/09/25 03:30:23;;;;;;;28.38;15.82;;;;;;;;;;6105569;23;20217;-92
2022/09/25 03:33:28;;;;;;;31.85;16.73;;;;;;;;;;6105967;23;20254;-91
2022/09/25 03:36:35;;;;;;;27.92;15.68;;;;;;;;;;6106296;23;20502;-92
2022/09/25 03:39:40;;;;;;;31.80;15.80;;;;;;;;;;6105361;23;20231;-91
2022/09/25 03:42:46;;;;;;;34.30;16.17;;;;;;;;;;6105955;23;20197;-91
2022/09/25 03:45:51;;;;;;;31.90;15.77;;;;;;;;;;6105239;23;20177;-91
2022/09/25 03:48:57;;;;;;;30.63;15.25;;;;;;;;;;6106570;23;20177;-91
2022/09/25 03:52:03;;;;;;;28.02;14.75;;;;;;;;;;6104093;23;20255;-92
2022/09/25 03:55:10;;;;;;;28.40;15.57;;;;;;;;;;6104069;23;20185;-92
2022/09/25 03:58:17;;;;;;;29.02;15.30;;;;;;;;;;6104613;23;20491;-91
2022/09/25 04:01:25;;;;;;;25.63;14.70;;;;;;;;;;6102552;23;20500;-92
2022/09/25 04:04:31;;;;;;;29.95;15.57;;;;;;;;;;6103890;23;20231;-91
2022/09/25 04:07:35;;;;;;;30.27;16.05;;;;;;;;;;6105776;23;20169;-92
2022/09/25 04:10:40;;;;;;;29.75;14.07;;;;;;;;;;6104648;23;20249;-91
2022/09/25 04:13:47;;;;;;;26.05;14.02;;;;;;;;;;6103908;23;20194;-91
2022/09/25 04:16:52;;;;;;;29.42;15.35;;;;;;;;;;6103739;23;20599;-91
2022/09/25 04:19:57;;;;;;;23.73;13.73;;;;;;;;;;6103091;23;20174;-89
2022/09/25 04:23:02;;;;;;;26.83;12.65;;;;;;;;;;6104101;23;20250;-90
2022/09/25 04:26:08;;;;;;;24.30;13.05;;;;;;;;;;6103778;23;20614;-92
2022/09/25 04:29:14;;;;;;;22.23;12.88;;;;;;;;;;6104608;23;20172;-90
2022/09/25 04:35:43;;;;;;;24.85;14.25;;;;;;;;;;6106880;23;20198;-92
2022/09/25 04:38:48;;;;;;;28.60;14.88;;;;;;;;;;6105648;23;20197;-91
2022/09/25 04:41:54;;;;;;;25.35;15.70;;;;;;;;;;6105044;23;20174;-90
2022/09/25 04:45:02;;;;;;;28.60;16.08;;;;;;;;;;6107336;23;20170;-90
2022/09/25 04:48:08;;;;;;;28.13;15.20;;;;;;;;;;6109058;23;20241;-92
2022/09/25 04:51:14;;;;;;;30.77;15.80;;;;;;;;;;6105343;23;20178;-92
2022/09/25 04:54:19;;;;;;;28.02;16.35;;;;;;;;;;6104766;23;20158;-92
2022/09/25 04:57:25;;;;;;;28.30;14.75;;;;;;;;;;6103253;23;20214;-91
2022/09/25 05:00:32;;;;;;;29.73;15.85;;;;;;;;;;6104556;23;20161;-92
2022/09/25 05:03:37;;;;;;;26.65;15.45;;;;;;;;;;6104349;23;20194;-92
2022/09/25 05:06:42;;;;;;;25.48;14.95;;;;;;;;;;6104443;23;20222;-93
2022/09/25 05:09:47;;;;;;;23.70;13.90;;;;;;;;;;6104290;23;20272;-92
2022/09/25 05:12:55;;;;;;;21.92;13.07;;;;;;;;;;6104514;23;20344;-92
2022/09/25 05:16:02;;;;;;;22.23;12.65;;;;;;;;;;6105164;23;20178;-92
2022/09/25 05:19:07;;;;;;;21.60;12.88;;;;;;;;;;6104282;23;20678;-92
2022/09/25 05:22:12;;;;;;;25.15;13.52;;;;;;;;;;6103443;23;20264;-93
2022/09/25 05:25:18;;;;;;;24.90;13.40;;;;;;;;;;6103319;23;20188;-92
2022/09/25 05:28:23;;;;;;;21.92;12.77;;;;;;;;;;6105043;23;20166;-90
2022/09/25 05:31:30;;;;;;;23.33;13.73;;;;;;;;;;6105186;23;20203;-92
2022/09/25 05:34:34;;;;;;;21.42;13.13;;;;;;;;;;6105512;23;20291;-92
2022/09/25 05:37:39;;;;;;;23.00;13.35;;;;;;;;;;6106084;23;20174;-92
2022/09/25 05:40:44;;;;;;;22.30;13.02;;;;;;;;;;6106435;23;20170;-92
2022/09/25 05:43:50;;;;;;;21.27;13.45;;;;;;;;;;6106389;23;20285;-92
2022/09/25 05:46:56;;;;;;;22.02;13.45;;;;;;;;;;6105385;23;20273;-92
2022/09/25 05:50:02;;;;;;;22.17;12.93;;;;;;;;;;6105797;23;20166;-93
2022/09/25 05:53:08;;;;;;;26.38;13.80;;;;;;;;;;6105807;23;20173;-92
2022/09/25 05:56:15;;;;;;;25.58;14.65;;;;;;;;;;6104953;23;20186;-93
2022/09/25 05:59:20;;;;;;;24.95;13.88;;;;;;;;;;6104574;23;20174;-93
2022/09/25 06:02:26;;;;;;;24.65;15.00;;;;;;;;;;6100732;23;20189;-94
2022/09/25 06:05:32;;;;;;;25.65;15.05;;;;;;;;;;6105338;23;20315;-91
2022/09/25 06:08:36;;;;;;;23.77;13.82;;;;;;;;;;6107004;23;20169;-92
2022/09/25 06:11:46;;;;;;;24.38;13.88;;;;;;;;;;6103956;23;20173;-93
2022/09/25 06:14:52;;;;;;;21.25;12.13;;;;;;;;;;6102743;23;20173;-92
2022/09/25 06:18:00;;;;;;;21.15;12.82;;;;;;;;;;6103524;23;20170;-90
2022/09/25 06:21:05;;;;;;;23.05;12.32;;;;;;;;;;6110332;23;20188;-93
2022/09/25 06:24:11;;;;;;;21.40;11.73;;;;;;;;;;6104330;23;20759;-93
2022/09/25 06:27:15;;;;;;;19.70;11.10;;;;;;;;;;6106297;23;20165;-93
2022/09/25 06:30:21;;;;;;;19.83;12.15;;;;;;;;;;6105673;23;20595;-93
2022/09/25 06:33:27;;;;;;;19.35;12.00;;;;;;;;;;6103892;23;20169;-92
2022/09/25 06:36:32;;;;;;;19.60;11.35;;;;;;;;;;6101991;23;20242;-92
2022/09/25 06:39:36;;;;;;;16.90;11.00;;;;;;;;;;6102194;23;20170;-92
2022/09/25 06:42:41;;;;;;;22.20;12.30;;;;;;;;;;6103650;23;20196;-92
2022/09/25 06:45:50;;;;;;;21.55;11.90;;;;;;;;;;6104172;23;20194;-92
2022/09/25 06:48:57;;;;;;;19.63;12.30;;;;;;;;;;6100952;23;20240;-91
2022/09/25 06:52:03;;;;;;;22.73;13.60;;;;;;;;;;6102640;23;20170;-92
2022/09/25 06:55:09;;;;;;;24.42;13.88;;;;;;;;;;6103130;23;20286;-92
2022/09/25 06:58:15;;;;;;;24.63;14.48;;;;;;;;;;6104455;23;20262;-92
2022/09/25 07:01:21;;;;;;;25.33;15.02;;;;;;;;;;6105646;23;20223;-92
2022/09/25 07:04:28;;;;;;;25.50;14.82;;;;;;;;;;6105371;23;20193;-92
2022/09/25 07:07:33;;;;;;;25.00;14.57;;;;;;;;;;6105175;23;20191;-92
2022/09/25 07:10:39;;;;;;;28.70;15.90;;;;;;;;;;6106822;23;20335;-92
2022/09/25 07:13:53;;;;;;;29.60;15.65;;;;;;;;;;6109497;23;20173;-92
2022/09/25 07:16:58;;;;;;;25.30;14.90;;;;;;;;;;6109649;23;20594;-90
2022/09/25 07:20:11;;;;;;;27.10;15.68;;;;;;;;;;6112563;23;20174;-94
2022/09/25 07:23:18;;;;;;;26.08;15.20;;;;;;;;;;6105388;23;20281;-91
2022/09/25 07:26:25;;;;;;;30.20;15.77;;;;;;;;;;6107824;23;20245;-89
2022/09/25 07:29:31;;;;;;;26.52;15.27;;;;;;;;;;6107184;23;20277;-93
2022/09/25 07:32:36;;;;;;;30.15;15.05;;;;;;;;;;6106542;23;20257;-90
2022/09/25 07:35:42;;;;;;;27.50;14.73;;;;;;;;;;6105967;23;20193;-91
2022/09/25 07:38:49;;;;;;;24.70;14.25;;;;;;;;;;6103860;23;20262;-90
2022/09/25 07:41:55;;;;;;;23.38;14.05;;;;;;;;;;6104933;23;20198;-91
2022/09/25 07:45:00;;;;;;;25.65;14.05;;;;;;;;;;6105980;23;20201;-91
2022/09/25 07:48:05;;;;;;;25.25;14.88;;;;;;;;;;6109347;23;20623;-92
2022/09/25 07:51:12;;;;;;;22.38;13.15;;;;;;;;;;6109765;23;20174;-91
2022/09/25 07:54:18;;;;;;;21.70;12.68;;;;;;;;;;6110118;23;20166;-94
2022/09/25 07:57:24;;;;;;;26.05;14.02;;;;;;;;;;6115341;23;20157;-92
2022/09/25 08:00:31;;;;;;;21.58;12.38;;;;;;;;;;6111568;23;20170;-93
2022/09/25 08:03:37;;;;;;;168.05;107.30;;;;;;;;;;6109968;23;20238;-93
2022/09/25 08:06:44;;;;;;;26.52;13.55;;;;;;;;;;6109486;23;20278;-93
2022/09/25 08:09:51;;;;;;;20.45;13.10;;;;;;;;;;6112131;23;20284;-92
2022/09/25 08:12:59;;;;;;;23.77;13.05;;;;;;;;;;6113841;23;20219;-93
2022/09/25 08:16:04;;;;;;;25.60;13.27;;;;;;;;;;6112647;23;20230;-93
2022/09/25 08:19:17;;;;;;;20.17;12.73;;;;;;;;;;6108772;23;20174;-92
2022/09/25 08:25:50;;;;;;;29.13;14.43;;;;;;;;;;6112767;23;20197;-91
2022/09/25 08:28:56;;;;;;;22.90;13.50;;;;;;;;;;6112884;23;20225;-90
2022/09/25 08:32:03;;;;;;;24.52;14.30;;;;;;;;;;6114051;23;20166;-91
2022/09/25 12:14:10;;;;;;;25.00;15.68;;;;;;;;;;6084519;23;20191;-92
2022/09/25 12:17:19;;;;;;;24.40;15.15;;;;;;;;;;6110606;23;20169;-93
2022/09/25 12:20:28;;;;;;;27.40;15.55;;;;;;;;;;6110863;23;20275;-92
2022/09/25 12:23:43;;;;;;;31.70;17.88;;;;;;;;;;6112290;23;20158;-92
2022/09/25 12:26:52;;;;;;;29.17;16.27;;;;;;;;;;6117246;23;20177;-91
2022/09/25 12:30:11;;;;;;;29.85;17.60;;;;;;;;;;6113138;23;20254;-92
2022/09/25 12:33:21;;;;;;;27.20;16.88;;;;;;;;;;6114596;23;20173;-93
2022/09/25 12:36:35;;;;;;;26.65;17.08;;;;;;;;;;6111503;23;20290;-92
2022/09/25 12:39:43;;;;;;;31.00;18.70;;;;;;;;;;6112531;23;20266;-93
2022/09/25 12:42:55;;;;;;;29.52;18.80;;;;;;;;;;6112710;23;20194;-92
2022/09/25 12:46:09;;;;;;;32.13;19.50;;;;;;;;;;6113380;23;20626;-94
2022/09/25 12:49:18;;;;;;;29.40;18.27;;;;;;;;;;6114911;23;20171;-92
2022/09/25 12:52:29;;;;;;;30.70;17.98;;;;;;;;;;6116714;23;20162;-92
2022/09/25 12:55:41;;;;;;;24.98;16.73;;;;;;;;;;6113273;23;20177;-92
2022/09/25 12:58:50;;;;;;;29.30;17.58;;;;;;;;;;6114221;23;20189;-93
2022/09/25 13:01:58;;;;;;;28.60;17.23;;;;;;;;;;6111775;23;20169;-93
2022/09/25 13:05:12;;;;;;;28.83;17.85;;;;;;;;;;6109843;23;20201;-93
2022/09/25 13:08:22;;;;;;;27.10;17.30;;;;;;;;;;6111307;23;20153;-93
2022/09/25 13:11:33;;;;;;;26.27;16.92;;;;;;;;;;6110223;23;20173;-91
2022/09/25 13:14:43;;;;;;;28.65;17.70;;;;;;;;;;6109212;23;20241;-93
2022/09/25 13:17:50;;;;;;;28.27;16.23;;;;;;;;;;6112679;23;20225;-93
2022/09/25 13:20:55;;;;;;;29.83;18.38;;;;;;;;;;6109588;23;20196;-93
2022/09/25 13:24:07;;;;;;;29.65;17.02;;;;;;;;;;6110805;23;20257;-93
2022/09/25 13:27:15;;;;;;;43.63;23.77;;;;;;;;;;6111116;23;20214;-92
2022/09/25 13:30:21;;;;;;;33.10;17.58;;;;;;;;;;6111099;23;20165;-91
2022/09/25 13:33:29;;;;;;;25.27;16.25;;;;;;;;;;6110939;23;20177;-92
2022/09/25 13:36:40;;;;;;;27.35;17.35;;;;;;;;;;6110796;23;20189;-93
2022/09/25 13:43:21;;;;;;;26.77;16.33;;;;;;;;;;6110008;23;20170;-92
2022/09/25 13:46:32;;;;;;;26.95;16.65;;;;;;;;;;6111512;23;20250;-93
2022/09/25 13:49:50;;;;;;;26.55;16.58;;;;;;;;;;6111552;23;20241;-94
2022/09/25 13:53:19;;;;;;;28.63;17.67;;;;;;;;;;6111753;23;20174;-94
2022/09/25 13:56:26;;;;;;;30.00;17.35;;;;;;;;;;6110063;23;20181;-92
2022/09/25 13:59:38;;;;;;;27.15;17.77;;;;;;;;;;6110651;23;20226;-93
2022/09/25 14:02:45;;;;;;;27.25;18.23;;;;;;;;;;6111104;23;20173;-93
2022/09/25 14:05:55;;;;;;;31.02;17.55;;;;;;;;;;6110060;23;20197;-92
2022/09/25 14:09:03;;;;;;;31.40;17.30;;;;;;;;;;6110308;23;20242;-91
2022/09/25 14:12:12;;;;;;;24.98;17.00;;;;;;;;;;6108198;23;20170;-90
2022/09/25 14:15:21;;;;;;;27.17;16.60;;;;;;;;;;6107750;23;20201;-91
2022/09/25 14:18:31;;;;;;;26.85;16.88;;;;;;;;;;6107421;23;20240;-90
2022/09/25 14:21:50;;;;;;;26.27;16.50;;;;;;;;;;6108018;23;20231;-92
2022/09/25 14:28:45;;;;;;;23.38;15.55;;;;;;;;;;6111312;23;20621;-91
2022/09/25 14:32:04;;;;;;;27.88;16.73;;;;;;;;;;6111431;23;20185;-92
2022/09/25 14:35:20;;;;;;;26.75;17.58;;;;;;;;;;6111463;23;20579;-92
2022/09/25 14:38:41;;;;;;;25.60;14.93;;;;;;;;;;6113297;23;20177;-91
2022/09/25 14:42:05;;;;;;;29.05;15.02;;;;;;;;;;6115420;23;20357;-91
2022/09/25 14:45:29;;;;;;;26.55;15.50;;;;;;;;;;6115250;23;20197;-92
2022/09/25 14:48:39;;;;;;;27.10;15.13;;;;;;;;;;6114038;23;20169;-91
2022/09/25 14:51:46;;;;;;;24.55;14.95;;;;;;;;;;6115223;23;20170;-93
2022/09/25 14:54:56;;;;;;;30.35;15.70;;;;;;;;;;6116008;23;20198;-92
2022/09/25 14:58:05;;;;;;;26.60;15.85;;;;;;;;;;6114203;23;20166;-93
2022/09/25 15:01:16;;;;;;;39.33;19.10;;;;;;;;;;6116279;23;20165;-92
2022/09/25 15:04:31;;;;;;;32.15;17.35;;;;;;;;;;6114791;23;20178;-91
2022/09/25 15:07:43;;;;;;;31.02;16.90;;;;;;;;;;6114735;23;20182;-92
2022/09/25 15:10:50;;;;;;;26.67;16.15;;;;;;;;;;6117558;23;20173;-91
2022/09/25 15:14:10;;;;;;;31.02;15.10;;;;;;;;;;6119373;23;20193;-93
2022/09/25 15:17:22;;;;;;;27.20;15.95;;;;;;;;;;6118273;23;20155;-92
2022/09/25 15:20:29;;;;;;;28.05;16.23;;;;;;;;;;6116659;23;20677;-91
2022/09/25 15:23:36;;;;;;;22.77;15.48;;;;;;;;;;6117181;23;20207;-92
2022/09/25 15:26:45;;;;;;;23.88;15.07;;;;;;;;;;6116541;23;20200;-92
2022/09/25 15:29:54;;;;;;;31.70;16.25;;;;;;;;;;6115668;23;20202;-93
2022/09/25 15:36:28;;;;;;;29.25;16.33;;;;;;;;;;6115143;23;20238;-92
2022/09/25 15:39:42;;;;;;;28.30;16.88;;;;;;;;;;6114954;23;20222;-92
2022/09/25 15:42:48;;;;;;;31.20;17.00;;;;;;;;;;6117507;23;20223;-92
2022/09/25 15:45:58;;;;;;;28.88;17.25;;;;;;;;;;6116778;23;20247;-92
2022/09/25 18:46:05;;;;;;;51.03;27.08;;;;;;;;;;6112295;23;20221;-92
2022/09/25 18:49:11;;;;;;;49.97;25.92;;;;;;;;;;6121593;23;20193;-92
2022/09/25 18:52:16;;;;;;;53.22;26.80;;;;;;;;;;6122561;23;20241;-92
2022/09/25 18:55:23;;;;;;;48.10;27.17;;;;;;;;;;6121768;23;20185;-92
2022/09/25 18:58:29;;;;;;;49.42;26.52;;;;;;;;;;6119685;23;20209;-90
2022/09/25 19:01:37;;;;;;;63.50;33.80;;;;;;;;;;6120575;23;20189;-92
2022/09/25 19:04:41;;;;;;;56.70;30.77;;;;;;;;;;6121564;23;20165;-91
2022/09/25 19:07:48;;;;;;;55.50;30.13;;;;;;;;;;6122155;23;20534;-91
2022/09/25 19:10:53;;;;;;;53.30;26.98;;;;;;;;;;6125778;23;20169;-91
2022/09/25 19:13:58;;;;;;;48.85;26.42;;;;;;;;;;6124371;23;20168;-91
2022/09/25 19:17:08;;;;;;;44.78;25.20;;;;;;;;;;6122901;23;20160;-92
2022/09/25 19:20:13;;;;;;;43.03;23.88;;;;;;;;;;6123627;23;20156;-90
2022/09/25 19:23:22;;;;;;;40.10;22.55;;;;;;;;;;6124348;23;20247;-91
2022/09/25 19:26:28;;;;;;;35.10;16.25;;;;;;;;;;6123680;23;20189;-92
2022/09/25 19:29:35;;;;;;;17.40;9.85;;;;;;;;;;6123251;23;20185;-91
2022/09/25 19:32:41;;;;;;;10.65;6.70;;;;;;;;;;6124193;23;20240;-90
2022/09/25 19:35:47;;;;;;;10.45;6.22;;;;;;;;;;6122826;23;20177;-91
2022/09/25 19:38:52;;;;;;;13.45;6.00;;;;;;;;;;6122639;23;20181;-91
2022/09/25 19:41:59;;;;;;;15.13;8.32;;;;;;;;;;6123103;23;20252;-92
2022/09/25 19:45:05;;;;;;;11.55;6.80;;;;;;;;;;6122098;23;20645;-91
2022/09/25 19:48:14;;;;;;;16.13;7.57;;;;;;;;;;6124381;23;20158;-91
2022/09/25 19:51:21;;;;;;;16.05;7.15;;;;;;;;;;6123296;23;20264;-90
2022/09/25 19:54:29;;;;;;;12.88;7.20;;;;;;;;;;6125272;23;20184;-93
2022/09/25 19:57:38;;;;;;;14.10;7.82;;;;;;;;;;6123454;23;20176;-91
2022/09/25 20:00:44;;;;;;;17.83;8.88;;;;;;;;;;6124367;23;20237;-92
2022/09/25 20:03:55;;;;;;;16.58;8.80;;;;;;;;;;6123356;23;20180;-92
2022/09/25 20:07:01;;;;;;;16.27;8.77;;;;;;;;;;6122230;23;20298;-93
2022/09/25 20:10:06;;;;;;;17.58;9.77;;;;;;;;;;6124488;23;20177;-92
2022/09/25 20:13:12;;;;;;;20.13;9.70;;;;;;;;;;6124109;23;20442;-91
2022/09/25 20:16:18;;;;;;;15.60;9.75;;;;;;;;;;6124619;23;20181;-91
2022/09/25 20:19:26;;;;;;;20.17;9.90;;;;;;;;;;6124755;23;20157;-91
2022/09/25 20:22:31;;;;;;;24.48;12.00;;;;;;;;;;6124992;23;20176;-92
2022/09/25 20:25:38;;;;;;;19.70;10.85;;;;;;;;;;6126029;23;20197;-93
2022/09/25 20:28:44;;;;;;;23.33;11.32;;;;;;;;;;6125428;23;20164;-90
2022/09/25 20:31:49;;;;;;;21.25;11.05;;;;;;;;;;6124780;23;20170;-91
2022/09/25 20:34:56;;;;;;;21.95;11.48;;;;;;;;;;6122080;23;20256;-92
2022/09/25 20:38:01;;;;;;;19.48;11.80;;;;;;;;;;6123670;23;20246;-92
2022/09/25 20:41:07;;;;;;;28.70;12.20;;;;;;;;;;6122755;23;20191;-93
2022/09/25 20:44:12;;;;;;;22.58;12.50;;;;;;;;;;6124986;23;20581;-92
2022/09/25 20:47:18;;;;;;;21.08;11.32;;;;;;;;;;6123397;23;20485;-92
2022/09/25 20:50:25;;;;;;;25.30;12.55;;;;;;;;;;6124800;23;20209;-93
2022/09/25 20:53:31;;;;;;;24.73;12.20;;;;;;;;;;6127204;23;20177;-91
2022/09/25 20:56:37;;;;;;;22.13;12.32;;;;;;;;;;6126769;23;20234;-91
2022/09/25 20:59:43;;;;;;;20.38;11.23;;;;;;;;;;6126278;23;20205;-90
2022/09/25 21:02:48;;;;;;;23.65;12.02;;;;;;;;;;6126062;23;20164;-90
2022/09/25 21:05:55;;;;;;;19.35;11.07;;;;;;;;;;6123357;23;20193;-91
2022/09/25 21:09:02;;;;;;;24.08;11.52;;;;;;;;;;6124929;23;20161;-89
2022/09/25 21:12:07;;;;;;;24.30;12.27;;;;;;;;;;6124448;23;20161;-90
2022/09/25 21:15:12;;;;;;;26.45;12.13;;;;;;;;;;6125149;23;20176;-88
2022/09/25 21:18:18;;;;;;;21.67;12.88;;;;;;;;;;6123244;23;20161;-90
2022/09/25 21:21:24;;;;;;;23.58;14.30;;;;;;;;;;6124772;23;20173;-90
2022/09/25 21:28:51;;;;;;;23.50;11.65;;;;;;;;;;6138945;23;20281;-92
2022/09/25 21:31:56;;;;;;;25.40;11.82;;;;;;;;;;6120748;23;20169;-92
2022/09/25 21:35:01;;;;;;;22.48;12.10;;;;;;;;;;6125061;23;20157;-92
2022/09/25 21:38:07;;;;;;;25.98;13.82;;;;;;;;;;6123859;23;20193;-91
2022/09/25 21:41:14;;;;;;;21.83;11.75;;;;;;;;;;6122397;23;20165;-91
2022/09/25 22:13:41;;;;;;;20.52;11.32;;;;;;;;;;6051414;23;20392;-91
2022/09/25 22:16:48;;;;;;;18.88;11.27;;;;;;;;;;6128848;23;20231;-92
2022/09/25 22:19:54;;;;;;;19.30;11.23;;;;;;;;;;6128060;23;20172;-91
2022/09/25 22:27:14;;;;;;;16.95;10.77;;;;;;;;;;6143751;23;20196;-91
2022/09/25 22:30:21;;;;;;;22.02;11.05;;;;;;;;;;6126759;23;20168;-91
2022/09/25 22:33:27;;;;;;;18.67;10.48;;;;;;;;;;6125154;23;20617;-91
2022/09/25 22:36:34;;;;;;;20.27;11.65;;;;;;;;;;6126054;23;20183;-91
2022/09/25 22:39:40;;;;;;;20.48;11.65;;;;;;;;;;6124224;23;20206;-91
2022/09/25 22:42:45;;;;;;;19.58;11.77;;;;;;;;;;6125411;23;20227;-91
2022/09/25 22:45:53;;;;;;;25.60;11.75;;;;;;;;;;6127835;23;20200;-91
2022/09/25 22:49:00;;;;;;;19.40;11.43;;;;;;;;;;6128951;23;20213;-91
2022/09/25 22:52:06;;;;;;;24.35;12.70;;;;;;;;;;6128822;23;20241;-90
2022/09/25 22:55:13;;;;;;;21.33;11.63;;;;;;;;;;6128674;23;20653;-91
2022/09/25 22:58:20;;;;;;;25.58;12.55;;;;;;;;;;6128496;23;20220;-92
2022/09/25 23:01:30;;;;;;;21.95;12.25;;;;;;;;;;6129639;23;20168;-91
2022/09/25 23:04:35;;;;;;;22.98;11.82;;;;;;;;;;6128680;23;20605;-89
2022/09/25 23:07:40;;;;;;;23.15;12.30;;;;;;;;;;6129808;23;20197;-92
2022/09/25 23:10:47;;;;;;;21.95;12.25;;;;;;;;;;6127403;23;20172;-93
2022/09/25 23:13:57;;;;;;;25.98;13.10;;;;;;;;;;6127216;23;20161;-92
2022/09/25 23:17:05;;;;;;;24.88;12.32;;;;;;;;;;6129065;23;20161;-90
2022/09/25 23:20:10;;;;;;;26.73;12.43;;;;;;;;;;6127496;23;20177;-91
2022/09/25 23:27:35;;;;;;;30.67;14.82;;;;;;;;;;6145838;23;20236;-91
2022/09/25 23:30:40;;;;;;;24.48;13.13;;;;;;;;;;6125915;23;20173;-90
2022/09/25 23:33:48;;;;;;;24.33;12.73;;;;;;;;;;6126590;23;20170;-91
2022/09/25 23:36:54;;;;;;;24.08;12.32;;;;;;;;;;6126562;23;20185;-92
2022/09/25 23:39:59;;;;;;;23.05;12.48;;;;;;;;;;6126969;23;20174;-92
2022/09/25 23:43:04;;;;;;;25.33;12.45;;;;;;;;;;6126387;23;20161;-90
2022/09/25 23:46:09;;;;;;;23.65;12.80;;;;;;;;;;6127147;23;20276;-92
2022/09/25 23:49:17;;;;;;;23.98;13.13;;;;;;;;;;6125055;23;20164;-92
2022/09/25 23:52:22;;;;;;;33.97;14.32;;;;;;;;;;6126623;23;20197;-93
2022/09/25 23:55:29;;;;;;;28.35;14.73;;;;;;;;;;6125155;23;20214;-91
2022/09/25 23:58:34;;;;;;;30.88;14.98;;;;;;;;;;6126692;23;20222;-92
